createdAt,value
2018-06-18T00:02:05.368Z,16.91
2018-06-18T00:04:33.581Z,16.90
2018-06-18T00:07:01.701Z,16.87
2018-06-18T00:09:30.180Z,16.82
2018-06-18T00:11:58.672Z,16.77
2018-06-18T00:14:27.141Z,16.75
2018-06-18T00:16:55.316Z,16.75
2018-06-18T00:19:23.452Z,16.76
2018-06-18T00:21:51.945Z,16.80
2018-06-18T00:24:20.103Z,16.81
2018-06-18T00:26:48.799Z,16.82
2018-06-18T00:29:16.941Z,16.82
2018-06-18T00:31:45.141Z,16.84
2018-06-18T00:34:13.310Z,16.82
2018-06-18T00:36:41.693Z,16.81
2018-06-18T00:39:10.085Z,16.80
2018-06-18T00:41:38.532Z,16.79
2018-06-18T00:44:07.184Z,16.77
2018-06-18T00:46:35.333Z,16.75
2018-06-18T00:49:03.668Z,16.73
2018-06-18T00:51:31.809Z,16.69
2018-06-18T00:53:59.961Z,16.68
2018-06-18T00:56:28.120Z,16.65
2018-06-18T00:58:56.299Z,16.65
2018-06-18T01:01:24.429Z,16.63
2018-06-18T01:03:52.572Z,16.60
2018-06-18T01:06:21.066Z,16.58
2018-06-18T01:08:49.797Z,16.56
2018-06-18T01:11:18.296Z,16.56
2018-06-18T01:13:47.008Z,16.53
2018-06-18T01:16:16.001Z,16.49
2018-06-18T01:18:44.125Z,16.50
2018-06-18T01:21:18.923Z,16.49
2018-06-18T01:23:55.604Z,16.46
2018-06-18T01:26:23.985Z,16.43
2018-06-18T01:28:52.219Z,16.42
2018-06-18T01:31:20.614Z,16.42
2018-06-18T01:33:49.417Z,16.41
2018-06-18T01:36:17.560Z,16.40
2018-06-18T01:38:45.907Z,16.38
2018-06-18T01:41:14.048Z,16.38
2018-06-18T01:43:42.184Z,16.36
2018-06-18T01:46:10.391Z,16.35
2018-06-18T01:48:38.537Z,16.35
2018-06-18T01:51:07.000Z,16.35
2018-06-18T01:53:35.150Z,16.30
2018-06-18T01:56:03.293Z,16.32
2018-06-18T01:58:31.628Z,16.31
2018-06-18T02:01:00.148Z,16.30
2018-06-18T02:03:28.291Z,16.30
2018-06-18T02:05:56.472Z,16.30
2018-06-18T02:08:24.626Z,16.30
2018-06-18T02:10:52.760Z,16.31
2018-06-18T02:13:21.277Z,16.34
2018-06-18T02:15:49.735Z,16.28
2018-06-18T02:18:18.421Z,16.24
2018-06-18T02:20:46.916Z,16.24
2018-06-18T02:23:15.096Z,16.25
2018-06-18T02:25:43.213Z,16.29
2018-06-18T02:28:16.849Z,16.28
2018-06-18T02:30:50.244Z,16.28
2018-06-18T02:33:24.158Z,16.29
2018-06-18T02:35:57.724Z,16.31
2018-06-18T02:38:31.641Z,16.33
2018-06-18T02:41:00.035Z,16.35
2018-06-18T02:43:28.351Z,16.35
2018-06-18T02:45:56.816Z,16.38
2018-06-18T02:48:24.948Z,16.39
2018-06-18T02:50:53.085Z,16.38
2018-06-18T02:53:21.220Z,16.38
2018-06-18T02:55:50.682Z,16.36
2018-06-18T02:58:18.813Z,16.33
2018-06-18T03:00:47.293Z,16.32
2018-06-18T03:03:15.415Z,16.29
2018-06-18T03:05:43.553Z,16.18
2018-06-18T03:08:11.678Z,16.19
2018-06-18T03:10:40.011Z,16.15
2018-06-18T03:13:08.140Z,16.11
2018-06-18T03:15:36.273Z,16.06
2018-06-18T03:18:04.520Z,16.04
2018-06-18T03:21:40.218Z,16.04
2018-06-18T03:24:11.443Z,16.02
2018-06-18T03:26:45.408Z,15.99
2018-06-18T03:29:17.431Z,16.00
2018-06-18T03:31:45.932Z,15.98
2018-06-18T03:34:14.463Z,15.97
2018-06-18T03:36:43.856Z,15.95
2018-06-18T03:39:13.496Z,15.95
2018-06-18T03:41:43.802Z,15.99
2018-06-18T03:44:18.213Z,16.04
2018-06-18T03:46:46.345Z,16.05
2018-06-18T03:49:14.567Z,16.04
2018-06-18T03:51:42.710Z,16.03
2018-06-18T03:54:11.180Z,16.00
2018-06-18T03:56:39.528Z,16.02
2018-06-18T03:59:08.232Z,16.03
2018-06-18T04:01:50.664Z,16.06
2018-06-18T04:04:24.615Z,16.09
2018-06-18T04:06:58.527Z,16.12
2018-06-18T04:09:32.373Z,16.15
2018-06-18T04:12:07.477Z,16.17
2018-06-18T04:14:35.832Z,16.22
2018-06-18T04:17:04.056Z,16.25
2018-06-18T04:19:32.444Z,16.27
2018-06-18T04:22:01.038Z,16.31
2018-06-18T04:24:29.204Z,16.37
2018-06-18T04:26:57.748Z,16.42
2018-06-18T04:29:25.927Z,16.45
2018-06-18T04:31:55.213Z,16.43
2018-06-18T04:34:30.110Z,16.40
2018-06-18T04:37:08.475Z,16.39
2018-06-18T04:39:36.971Z,16.39
2018-06-18T04:42:10.872Z,16.40
2018-06-18T04:44:44.882Z,16.39
2018-06-18T04:47:18.553Z,16.43
2018-06-18T04:49:52.484Z,16.49
2018-06-18T04:52:20.621Z,16.54
2018-06-18T04:54:48.771Z,16.63
2018-06-18T04:57:16.916Z,16.67
2018-06-18T04:59:50.988Z,16.66
2018-06-18T05:02:19.138Z,16.64
2018-06-18T05:04:47.617Z,16.63
2018-06-18T05:07:15.924Z,16.69
2018-06-18T05:10:07.941Z,16.75
2018-06-18T05:12:36.114Z,16.76
2018-06-18T05:15:04.836Z,16.77
2018-06-18T05:17:33.300Z,16.81
2018-06-18T05:20:01.777Z,16.85
2018-06-18T05:22:30.102Z,16.91
2018-06-18T05:24:58.421Z,16.95
2018-06-18T05:27:30.114Z,16.98
2018-06-18T05:30:01.184Z,16.99
2018-06-18T05:32:29.871Z,17.00
2018-06-18T05:34:58.036Z,17.00
2018-06-18T05:37:32.831Z,17.02
2018-06-18T05:40:01.290Z,17.08
2018-06-18T05:42:30.188Z,17.15
2018-06-18T05:44:58.824Z,17.23
2018-06-18T05:47:26.963Z,17.30
2018-06-18T05:49:55.094Z,17.38
2018-06-18T05:52:23.248Z,17.41
2018-06-18T05:54:51.357Z,17.44
2018-06-18T05:57:19.531Z,17.51
2018-06-18T05:59:47.647Z,17.48
2018-06-18T06:02:15.777Z,17.40
2018-06-18T06:04:43.910Z,17.34
2018-06-18T06:07:12.376Z,17.36
2018-06-18T06:09:40.741Z,17.40
2018-06-18T06:12:09.646Z,17.37
2018-06-18T06:14:38.165Z,17.36
2018-06-18T06:17:06.859Z,17.43
2018-06-18T06:19:35.014Z,17.42
2018-06-18T06:22:03.339Z,17.37
2018-06-18T06:24:31.683Z,17.34
2018-06-18T06:27:00.156Z,17.31
2018-06-18T06:29:28.299Z,17.25
2018-06-18T06:31:56.641Z,17.23
2018-06-18T06:34:25.096Z,17.27
2018-06-18T06:36:53.610Z,17.27
2018-06-18T06:39:22.078Z,17.31
2018-06-18T06:41:53.536Z,17.34
2018-06-18T06:44:22.052Z,17.40
2018-06-18T06:46:50.331Z,17.50
2018-06-18T06:49:18.821Z,17.56
2018-06-18T06:51:46.945Z,17.61
2018-06-18T06:54:15.414Z,17.58
2018-06-18T06:56:43.564Z,17.62
2018-06-18T06:59:11.916Z,17.64
2018-06-18T07:01:40.060Z,17.67
2018-06-18T07:04:09.064Z,17.76
2018-06-18T07:06:37.559Z,17.83
2018-06-18T07:09:08.934Z,17.93
2018-06-18T07:11:37.924Z,17.96
2018-06-18T07:14:06.383Z,17.94
2018-06-18T07:16:35.024Z,17.81
2018-06-18T07:19:03.397Z,17.82
2018-06-18T07:21:31.548Z,17.83
2018-06-18T07:23:59.729Z,17.87
2018-06-18T07:26:27.844Z,17.97
2018-06-18T07:28:56.369Z,18.08
2018-06-18T07:31:24.858Z,18.14
2018-06-18T07:33:53.395Z,18.28
2018-06-18T07:36:21.736Z,18.42
2018-06-18T07:38:50.211Z,18.52
2018-06-18T07:41:18.348Z,18.58
2018-06-18T07:43:46.492Z,18.62
2018-06-18T07:46:14.948Z,18.58
2018-06-18T07:48:43.408Z,18.47
2018-06-18T07:51:11.881Z,18.40
2018-06-18T07:53:40.354Z,18.37
2018-06-18T07:56:08.493Z,18.34
2018-06-18T07:58:37.296Z,18.31
2018-06-18T08:01:05.765Z,18.30
2018-06-18T08:03:33.945Z,18.33
2018-06-18T08:06:02.561Z,18.36
2018-06-18T08:08:31.136Z,18.42
2018-06-18T08:10:59.604Z,18.49
2018-06-18T08:13:28.082Z,18.53
2018-06-18T08:15:56.217Z,18.55
2018-06-18T08:18:24.354Z,18.62
2018-06-18T08:20:52.805Z,18.69
2018-06-18T08:23:21.385Z,18.76
2018-06-18T08:25:49.870Z,18.84
2018-06-18T08:28:18.001Z,18.88
2018-06-18T08:30:46.460Z,18.90
2018-06-18T08:33:14.955Z,18.91
2018-06-18T08:35:43.074Z,18.96
2018-06-18T08:38:11.546Z,19.01
2018-06-18T08:40:40.018Z,19.12
2018-06-18T08:43:08.156Z,19.29
2018-06-18T08:45:36.314Z,19.40
2018-06-18T08:48:04.518Z,19.45
2018-06-18T08:50:38.311Z,19.45
2018-06-18T08:53:12.428Z,19.45
2018-06-18T08:55:45.975Z,19.38
2018-06-18T08:58:19.690Z,19.30
2018-06-18T09:00:53.871Z,19.27
2018-06-18T09:03:23.085Z,19.34
2018-06-18T09:06:09.452Z,19.39
2018-06-18T09:08:43.024Z,19.44
2018-06-18T09:11:11.481Z,19.52
2018-06-18T09:13:39.834Z,19.56
2018-06-18T09:16:08.041Z,19.67
2018-06-18T09:18:36.640Z,19.82
2018-06-18T09:21:04.761Z,20.00
2018-06-18T09:23:32.925Z,20.11
2018-06-18T09:26:01.953Z,20.25
2018-06-18T09:28:30.978Z,20.37
2018-06-18T09:30:59.342Z,20.55
2018-06-18T09:33:28.024Z,20.68
2018-06-18T09:35:56.481Z,20.77
2018-06-18T09:38:24.609Z,20.82
2018-06-18T09:40:52.751Z,20.81
2018-06-18T09:43:20.892Z,20.70
2018-06-18T09:45:49.352Z,20.64
2018-06-18T09:48:17.892Z,20.65
2018-06-18T09:50:51.420Z,20.75
2018-06-18T09:53:25.214Z,20.94
2018-06-18T09:55:59.672Z,21.00
2018-06-18T09:58:33.276Z,21.03
2018-06-18T10:01:09.826Z,21.02
2018-06-18T10:03:37.957Z,20.96
2018-06-18T10:06:06.540Z,21.02
2018-06-18T10:08:35.070Z,21.08
2018-06-18T10:11:03.366Z,21.17
2018-06-18T10:13:31.505Z,21.24
2018-06-18T10:16:00.261Z,21.23
2018-06-18T10:18:28.389Z,21.26
2018-06-18T10:20:56.516Z,21.34
2018-06-18T10:23:24.660Z,21.35
2018-06-18T10:25:53.254Z,21.31
2018-06-18T10:28:21.714Z,21.32
2018-06-18T10:30:49.857Z,21.38
2018-06-18T10:33:23.449Z,21.45
2018-06-18T10:35:57.073Z,21.48
2018-06-18T10:38:30.984Z,21.52
2018-06-18T10:41:04.556Z,21.52
2018-06-18T10:43:34.797Z,21.50
2018-06-18T10:46:03.267Z,21.54
2018-06-18T10:48:31.985Z,21.57
2018-06-18T10:51:00.442Z,21.56
2018-06-18T10:53:28.945Z,21.49
2018-06-18T10:55:57.308Z,21.47
2018-06-18T10:58:25.717Z,21.51
2018-06-18T11:00:59.115Z,21.56
2018-06-18T11:03:27.260Z,21.61
2018-06-18T11:06:01.386Z,21.73
2018-06-18T11:08:29.858Z,21.80
2018-06-18T11:10:58.389Z,21.76
2018-06-18T11:13:26.929Z,21.73
2018-06-18T11:15:55.116Z,21.78
2018-06-18T11:18:28.684Z,21.81
2018-06-18T11:21:02.304Z,21.87
2018-06-18T11:23:36.106Z,22.01
2018-06-18T11:26:09.991Z,22.24
2018-06-18T11:28:38.118Z,22.51
2018-06-18T11:31:06.444Z,22.59
2018-06-18T11:33:34.797Z,22.56
2018-06-18T11:36:02.928Z,22.51
2018-06-18T11:38:31.585Z,22.49
2018-06-18T11:40:59.936Z,22.47
2018-06-18T11:43:28.108Z,22.51
2018-06-18T11:45:56.398Z,22.54
2018-06-18T11:48:24.966Z,22.49
2018-06-18T11:50:53.313Z,22.43
2018-06-18T11:53:21.484Z,22.36
2018-06-18T11:55:49.707Z,22.32
2018-06-18T11:58:23.411Z,22.34
2018-06-18T12:00:57.853Z,22.41
2018-06-18T12:03:31.645Z,22.52
2018-06-18T12:06:05.541Z,22.51
2018-06-18T12:08:39.486Z,22.58
2018-06-18T12:11:08.085Z,22.75
2018-06-18T12:13:36.269Z,22.94
2018-06-18T12:16:04.392Z,22.93
2018-06-18T12:18:32.550Z,22.76
2018-06-18T12:21:01.010Z,22.62
2018-06-18T12:23:29.128Z,22.53
2018-06-18T12:25:57.633Z,22.47
2018-06-18T12:28:25.761Z,22.43
2018-06-18T12:30:55.531Z,22.46
2018-06-18T12:33:23.853Z,22.46
2018-06-18T12:35:52.577Z,22.51
2018-06-18T12:38:20.724Z,22.54
2018-06-18T12:40:49.244Z,22.64
2018-06-18T12:43:20.852Z,22.77
2018-06-18T12:45:57.043Z,22.90
2018-06-18T12:48:31.003Z,22.91
2018-06-18T12:51:04.881Z,22.85
2018-06-18T12:53:38.921Z,22.83
2018-06-18T12:56:12.680Z,22.86
2018-06-18T12:58:40.808Z,22.88
2018-06-18T13:01:10.594Z,22.95
2018-06-18T13:03:39.069Z,22.90
2018-06-18T13:06:07.540Z,22.84
2018-06-18T13:08:35.684Z,22.85
2018-06-18T13:11:04.159Z,22.87
2018-06-18T13:13:32.640Z,22.90
2018-06-18T13:16:00.784Z,22.92
2018-06-18T13:18:29.084Z,22.90
2018-06-18T13:20:57.280Z,22.82
2018-06-18T13:23:25.422Z,22.79
2018-06-18T13:25:53.881Z,22.69
2018-06-18T13:28:22.071Z,22.63
2018-06-18T13:30:50.356Z,22.63
2018-06-18T13:33:18.500Z,22.68
2018-06-18T13:35:47.288Z,22.76
2018-06-18T13:38:21.053Z,22.82
2018-06-18T13:40:54.937Z,22.96
2018-06-18T13:43:29.001Z,23.12
2018-06-18T13:46:02.937Z,23.30
2018-06-18T13:48:36.558Z,23.35
2018-06-18T13:51:05.025Z,23.36
2018-06-18T13:53:33.145Z,23.33
2018-06-18T13:56:01.779Z,23.37
2018-06-18T13:58:30.063Z,23.36
2018-06-18T14:00:58.393Z,23.26
2018-06-18T14:03:26.588Z,23.17
2018-06-18T14:05:55.033Z,23.09
2018-06-18T14:08:23.417Z,23.00
2018-06-18T14:10:51.548Z,22.99
2018-06-18T14:13:20.098Z,23.00
2018-06-18T14:15:48.197Z,22.99
2018-06-18T14:18:16.880Z,22.97
2018-06-18T14:20:45.344Z,22.91
2018-06-18T14:23:13.494Z,22.89
2018-06-18T14:25:41.628Z,22.79
2018-06-18T14:28:09.796Z,22.75
2018-06-18T14:30:43.800Z,22.70
2018-06-18T14:33:17.333Z,22.71
2018-06-18T14:35:51.201Z,22.74
2018-06-18T14:38:24.749Z,22.80
2018-06-18T14:40:53.229Z,22.86
2018-06-18T14:43:21.376Z,22.85
2018-06-18T14:45:49.591Z,22.91
2018-06-18T14:48:17.893Z,23.03
2018-06-18T14:50:46.178Z,23.10
2018-06-18T14:53:14.685Z,23.08
2018-06-18T14:55:44.318Z,23.07
2018-06-18T14:58:12.780Z,23.01
2018-06-18T15:00:40.892Z,22.91
2018-06-18T15:03:09.073Z,22.85
2018-06-18T15:05:40.586Z,22.79
2018-06-18T15:08:09.092Z,22.75
2018-06-18T15:10:42.886Z,22.77
2018-06-18T15:13:13.673Z,22.73
2018-06-18T15:15:47.525Z,22.61
2018-06-18T15:18:15.790Z,22.49
2018-06-18T15:20:43.937Z,22.29
2018-06-18T15:23:12.608Z,22.05
2018-06-18T15:25:44.131Z,21.84
2018-06-18T15:28:12.428Z,21.69
2018-06-18T15:30:40.536Z,21.58
2018-06-18T15:33:08.669Z,21.48
2018-06-18T15:35:36.778Z,21.34
2018-06-18T15:38:04.968Z,21.32
2018-06-18T15:40:33.580Z,21.39
2018-06-18T15:43:01.932Z,21.50
2018-06-18T15:45:30.078Z,21.61
2018-06-18T15:47:58.249Z,21.70
2018-06-18T15:50:26.441Z,21.79
2018-06-18T15:52:55.027Z,21.84
2018-06-18T15:55:23.172Z,21.90
2018-06-18T15:57:51.321Z,21.98
2018-06-18T16:00:19.460Z,22.02
2018-06-18T16:02:47.596Z,22.08
2018-06-18T16:05:16.092Z,22.12
2018-06-18T16:07:44.235Z,22.12
2018-06-18T16:10:12.741Z,22.13
2018-06-18T16:12:41.230Z,22.15
2018-06-18T16:15:09.402Z,22.17
2018-06-18T16:17:37.869Z,22.13
2018-06-18T16:20:06.448Z,22.13
2018-06-18T16:22:34.936Z,22.14
2018-06-18T16:25:03.663Z,22.17
2018-06-18T16:27:32.317Z,22.15
2018-06-18T16:30:01.270Z,22.09
2018-06-18T16:32:29.604Z,22.05
2018-06-18T16:34:58.076Z,22.04
2018-06-18T16:37:26.253Z,22.06
2018-06-18T16:39:54.740Z,22.06
2018-06-18T16:42:22.871Z,22.06
2018-06-18T16:44:51.217Z,22.04
2018-06-18T16:47:19.354Z,22.10
2018-06-18T16:49:47.501Z,22.16
2018-06-18T16:52:15.978Z,22.13
2018-06-18T16:54:44.480Z,22.05
2018-06-18T16:57:13.135Z,21.98
2018-06-18T16:59:41.785Z,21.94
2018-06-18T17:02:09.937Z,21.84
2018-06-18T17:04:38.419Z,21.69
2018-06-18T17:07:06.617Z,21.61
2018-06-18T17:09:35.082Z,21.55
2018-06-18T17:12:03.724Z,21.44
2018-06-18T17:14:31.844Z,21.31
2018-06-18T17:17:00.191Z,21.23
2018-06-18T17:19:28.320Z,21.23
2018-06-18T17:21:56.757Z,21.27
2018-06-18T17:24:24.895Z,21.32
2018-06-18T17:26:53.042Z,21.33
2018-06-18T17:29:21.523Z,21.31
2018-06-18T17:31:49.726Z,21.39
2018-06-18T17:34:18.044Z,21.38
2018-06-18T17:36:46.597Z,21.36
2018-06-18T17:39:14.765Z,21.32
2018-06-18T17:41:42.933Z,21.35
2018-06-18T17:44:11.292Z,21.36
2018-06-18T17:46:39.626Z,21.36
2018-06-18T17:49:08.021Z,21.38
2018-06-18T17:51:36.517Z,21.39
2018-06-18T17:54:05.010Z,21.37
2018-06-18T17:56:33.793Z,21.32
2018-06-18T17:59:01.957Z,21.31
2018-06-18T18:01:30.441Z,21.30
2018-06-18T18:03:59.118Z,21.32
2018-06-18T18:06:27.289Z,21.35
2018-06-18T18:08:55.812Z,21.37
2018-06-18T18:11:23.951Z,21.43
2018-06-18T18:13:52.436Z,21.48
2018-06-18T18:16:20.764Z,21.56
2018-06-18T18:18:49.226Z,21.60
2018-06-18T18:21:17.388Z,21.66
2018-06-18T18:23:45.535Z,21.70
2018-06-18T18:26:13.942Z,21.75
2018-06-18T18:28:42.306Z,21.73
2018-06-18T18:31:10.659Z,21.65
2018-06-18T18:33:40.683Z,21.54
2018-06-18T18:36:09.062Z,21.47
2018-06-18T18:38:37.246Z,21.45
2018-06-18T18:41:05.429Z,21.44
2018-06-18T18:43:33.564Z,21.45
2018-06-18T18:46:02.232Z,21.52
2018-06-18T18:48:30.789Z,21.56
2018-06-18T18:50:58.925Z,21.54
2018-06-18T18:53:27.267Z,21.53
2018-06-18T18:56:07.899Z,21.43
2018-06-18T18:59:42.912Z,21.37
2018-06-18T19:02:11.429Z,21.31
2018-06-18T19:04:44.964Z,21.28
2018-06-18T19:07:13.466Z,21.25
2018-06-18T19:09:47.069Z,21.25
2018-06-18T19:12:15.383Z,21.27
2018-06-18T19:14:43.526Z,21.25
2018-06-18T19:17:11.644Z,21.20
2018-06-18T19:19:48.116Z,21.15
2018-06-18T19:22:16.586Z,21.05
2018-06-18T19:24:45.047Z,20.97
2018-06-18T19:27:13.443Z,20.92
2018-06-18T19:29:41.611Z,20.90
2018-06-18T19:32:10.068Z,20.88
2018-06-18T19:34:38.259Z,20.82
2018-06-18T19:37:06.934Z,20.76
2018-06-18T19:39:38.176Z,20.71
2018-06-18T19:42:07.520Z,20.66
2018-06-18T19:44:35.890Z,20.63
2018-06-18T19:47:17.345Z,20.61
2018-06-18T19:49:45.605Z,20.57
2018-06-18T19:52:13.913Z,20.56
2018-06-18T19:54:47.309Z,20.56
2018-06-18T19:57:15.931Z,20.55
2018-06-18T19:59:44.359Z,20.56
2018-06-18T20:02:13.489Z,20.56
2018-06-18T20:04:41.985Z,20.55
2018-06-18T20:07:10.351Z,20.52
2018-06-18T20:09:38.848Z,20.51
2018-06-18T20:12:07.735Z,20.51
2018-06-18T20:14:36.449Z,20.50
2018-06-18T20:17:04.638Z,20.52
2018-06-18T20:19:32.760Z,20.51
2018-06-18T20:22:01.085Z,20.48
2018-06-18T20:24:29.338Z,20.45
2018-06-18T20:26:57.489Z,20.47
2018-06-18T20:29:25.651Z,20.48
2018-06-18T20:31:53.843Z,20.45
2018-06-18T20:34:22.199Z,20.42
2018-06-18T20:36:50.376Z,20.33
2018-06-18T20:39:19.035Z,20.21
2018-06-18T20:41:47.353Z,20.14
2018-06-18T20:44:20.074Z,20.11
2018-06-18T20:46:48.229Z,20.10
2018-06-18T20:49:16.585Z,20.05
2018-06-18T20:51:45.636Z,19.99
2018-06-18T20:54:14.093Z,19.93
2018-06-18T20:56:42.249Z,19.91
2018-06-18T20:59:12.739Z,19.89
2018-06-18T21:01:40.890Z,19.83
2018-06-18T21:04:09.399Z,19.77
2018-06-18T21:06:37.879Z,19.69
2018-06-18T21:09:08.299Z,19.63
2018-06-18T21:11:36.514Z,19.63
2018-06-18T21:14:04.784Z,19.64
2018-06-18T21:16:32.927Z,19.59
2018-06-18T21:19:01.568Z,19.58
2018-06-18T21:21:29.901Z,19.60
2018-06-18T21:23:58.372Z,19.66
2018-06-18T21:26:26.698Z,19.69
2018-06-18T21:28:55.367Z,19.70
2018-06-18T21:31:23.860Z,19.64
2018-06-18T21:33:52.019Z,19.60
2018-06-18T21:36:20.135Z,19.59
2018-06-18T21:38:48.640Z,19.56
2018-06-18T21:41:16.779Z,19.50
2018-06-18T21:43:44.995Z,19.43
2018-06-18T21:46:13.160Z,19.33
2018-06-18T21:48:41.308Z,19.26
2018-06-18T21:51:09.532Z,19.26
2018-06-18T21:53:38.008Z,19.27
2018-06-18T21:59:19.656Z,19.23
2018-06-18T22:01:48.138Z,19.19
2018-06-18T22:04:16.634Z,19.19
2018-06-18T22:06:45.101Z,19.19
2018-06-18T22:09:16.298Z,19.21
2018-06-18T22:11:46.868Z,19.20
2018-06-18T22:14:15.010Z,19.18
2018-06-18T22:16:43.127Z,19.20
2018-06-18T22:19:11.495Z,19.21
2018-06-18T22:21:39.662Z,19.23
2018-06-18T22:24:08.189Z,19.23
2018-06-18T22:26:36.609Z,19.18
2018-06-18T22:29:08.005Z,19.14
2018-06-18T22:31:36.782Z,19.12
2018-06-18T22:34:05.257Z,19.10
2018-06-18T22:36:33.395Z,19.06
2018-06-18T22:39:02.303Z,19.00
2018-06-18T22:41:30.783Z,18.93
2018-06-18T22:43:59.509Z,18.91
2018-06-18T22:46:27.640Z,18.84
2018-06-18T22:48:55.769Z,18.80
2018-06-18T22:51:24.233Z,18.83
2018-06-18T22:53:52.656Z,18.84
2018-06-18T22:56:21.302Z,18.84
2018-06-18T22:58:50.025Z,18.82
2018-06-18T23:01:18.941Z,18.78
2018-06-18T23:03:47.094Z,18.72
2018-06-18T23:06:15.225Z,18.70
2018-06-18T23:08:43.382Z,18.67
2018-06-18T23:11:11.757Z,18.60
2018-06-18T23:13:40.025Z,18.53
2018-06-18T23:16:09.042Z,18.52
2018-06-18T23:18:37.174Z,18.49
2018-06-18T23:21:05.649Z,18.49
2018-06-18T23:23:34.310Z,18.47
2018-06-18T23:26:02.698Z,18.46
2018-06-18T23:28:40.309Z,18.45
2018-06-18T23:31:08.773Z,18.43
2018-06-18T23:33:36.897Z,18.42
2018-06-18T23:36:05.493Z,18.39
2018-06-18T23:38:33.782Z,18.37
2018-06-18T23:41:02.549Z,18.33
2018-06-18T23:43:30.767Z,18.30
2018-06-18T23:45:59.133Z,18.25
2018-06-18T23:48:27.586Z,18.19
2018-06-18T23:50:55.738Z,18.14
2018-06-18T23:53:24.060Z,18.09
2018-06-18T23:55:52.529Z,18.07
2018-06-18T23:58:20.653Z,18.06
